TAF Text Data
IDs:
Format:
Raw Decoded Include METAR

Data at: 1639 UTC 20 Nov 2018

Region: TOP
KATL 201549Z 2016/2118 30011KT P6SM FEW025 SCT045
  FM201700 30012G20KT P6SM SCT035
  FM202100 31012KT P6SM FEW250
  FM210200 31006KT P6SM FEW250
  FM211500 31006KT P6SM FEW025


KBOS 201508Z 2015/2118 02012KT 2SM -RA BR OVC008
  FM202000 36012G20KT 2SM -SNRA OVC008
  FM202200 34012G19KT 3SM BR VCSH OVC008
  FM210000 32011G18KT 5SM BR OVC008
  FM210100 32010G18KT P6SM BKN025
  FM210300 29010G18KT P6SM SCT040
  FM211200 28009KT P6SM FEW100
  FM211600 25010G17KT P6SM FEW080


KBWI 201453Z 2015/2118 31009KT P6SM BKN070
  FM201700 30012G21KT P6SM SCT080
  FM210300 30008KT P6SM SKC
  FM211300 26006KT P6SM FEW250


KCLE 201559Z 2016/2118 32010G18KT P6SM BKN015
  FM201800 31012G18KT P6SM BKN025
  FM202200 28008KT P6SM BKN045
  FM211300 25013G23KT P6SM OVC030


KCLT 201548Z 2016/2118 30008KT P6SM FEW020 FEW050 BKN200
  FM201800 33009G17KT P6SM SCT250
  FM210000 36005KT P6SM SKC


KCVG 201457Z 2015/2118 28011KT 3SM -DZ SCT008 OVC015
  TEMPO 2015/2017 BKN008 OVC015
  FM201700 29008KT P6SM BKN022
  FM210000 25004KT P6SM SCT030
  FM211000 23006KT P6SM FEW030 BKN090
  FM211400 25010KT P6SM BKN070


KDCA 201453Z 2015/2118 31010G17KT P6SM BKN070
  FM201700 31012G20KT P6SM SCT080
  FM210100 31009KT P6SM FEW250
  FM210600 30005KT P6SM FEW250
  FM211400 24005KT P6SM FEW250


KDEN 201505Z 2015/2118 21005KT P6SM SKC
  FM201800 16005KT P6SM SKC
  FM202100 11007KT P6SM SKC
  FM210200 16007KT P6SM SKC
  FM210500 21009KT P6SM SKC
  FM211600 25005KT P6SM SKC


KDFW 201456Z 2015/2118 01007KT P6SM SKC

KDTW 201520Z 2015/2118 32014KT P6SM SCT045
  FM202200 23007KT P6SM BKN040
  FM210700 23013KT P6SM BKN025 OVC040
  FM211300 31013G20KT P6SM OVC025


KEWR 201530Z 2016/2118 32008KT P6SM BKN012
  FM201700 30014KT P6SM BKN035
  FM202000 30014G23KT P6SM SCT040
  FM210200 30011KT P6SM SKC
  FM210800 28007KT P6SM SKC
  FM211500 25014G23KT P6SM BKN080


KFLL 201525Z 2015/2118 13007KT P6SM SCT030 BKN040
  FM202200 02003KT P6SM VCSH SCT040 BKN100 BKN250
  FM210200 00000KT P6SM SCT035


KIAD 201453Z 2015/2118 32010G17KT P6SM BKN080
  FM201700 30013G21KT P6SM SCT040
  FM202200 30013G20KT P6SM SCT250
  FM210100 30009KT P6SM FEW250
  FM210600 30005KT P6SM FEW250
  FM211100 24004KT P6SM FEW250
  FM211600 25008KT P6SM SCT250


KIAH 201506Z 2015/2118 03009KT P6SM FEW250
  FM210100 01003KT P6SM FEW250
  FM211500 05007KT P6SM SCT250


KJFK 201530Z 2016/2118 32008KT P6SM BKN015
  FM201700 30014KT P6SM BKN030
  FM202000 31014G23KT P6SM SCT040
  FM210200 30014KT P6SM SKC
  FM211000 28010KT P6SM SKC
  FM211500 25015G23KT P6SM BKN080


KLAS 201420Z 2014/2118 VRB04KT P6SM BKN150 OVC200
  FM202100 VRB04KT P6SM SCT150 BKN200
  FM210200 27005KT P6SM SCT250
  FM211700 07005KT P6SM SCT250


KLAX 201458Z 2015/2118 VRB03KT P6SM SKC
  FM201900 25010KT P6SM SKC
  FM210300 VRB03KT P6SM SCT200
  FM210900 14006KT 5SM BR BKN020 BKN180
  FM211200 09008KT P6SM SCT025 OVC120


KLGA 201530Z 2016/2118 33009KT P6SM BKN015
  FM201700 30014KT P6SM BKN035
  FM202000 31014G23KT P6SM SCT040
  FM210200 30013KT P6SM SKC
  FM211000 28009KT P6SM SKC
  FM211500 25014G23KT P6SM BKN080


KMCO 201506Z 2015/2118 VRB05KT P6SM VCSH SCT015 BKN040 BKN090
  TEMPO 2015/2016 BKN015
  FM201800 33006KT P6SM VCSH SCT035 BKN050
  FM202300 01006KT P6SM SCT035 BKN100
  FM210600 35005KT P6SM SCT250


KMDW 201502Z 2015/2118 32010KT P6SM SCT020 BKN040
  TEMPO 2015/2017 BKN017
  FM201800 27009KT P6SM SCT040
  FM202000 24012G17KT P6SM SCT045
  FM210100 24015G23KT P6SM BKN060
  FM210800 29008KT P6SM BKN050
  FM211600 01009KT P6SM BKN050


KMEM 201450Z 2015/2118 32005KT P6SM SCT030
  FM201600 34007KT P6SM SCT030
  TEMPO 2017/2021 BKN030
  FM210100 VRB02KT P6SM SKC


KMIA 201528Z 2015/2118 13005KT P6SM SCT030 BKN040 BKN300
  FM201700 14008KT P6SM SCT035 BKN050 BKN300
  FM202200 35003KT P6SM VCSH SCT040 BKN100
  FM210200 00000KT P6SM SCT035


KMSP 201451Z 2015/2118 21006KT P6SM SCT025 BKN110
  FM201530 21010G18KT P6SM BKN025 OVC060
  TEMPO 2017/2019 -SN
  FM210000 28006KT P6SM OVC030
  FM210500 32005KT P6SM SCT030 BKN050
  FM210900 36005KT P6SM BKN050 OVC100


KORD 201501Z 2015/2118 31010KT P6SM SCT025 BKN040
  FM201700 27009KT P6SM SCT040
  FM202000 24012G17KT P6SM SCT045
  FM210100 24015G23KT P6SM BKN060
  FM210800 29008KT P6SM BKN050
  FM211600 01009KT P6SM BKN050


KPDX 201500Z 2015/2112 12005KT P6SM SKC
  TEMPO 2015/2016 MIFG
  FM202000 11010KT P6SM SCT200
  FM210600 12005KT P6SM OVC100


KPHL 201602Z 2016/2118 31010KT P6SM SCT025 BKN080
  TEMPO 2016/2018 BKN025 OVC080
  FM201800 30014G22KT P6SM FEW060
  FM202300 30010KT P6SM FEW250


KPHX 201431Z 2015/2118 12004KT P6SM OVC200
  FM202300 25003KT P6SM BKN250
  FM210400 10005KT P6SM SKC


KPIT 201454Z 2015/2118 26009KT P6SM OVC020
  TEMPO 2015/2017 4SM -SHSN BR BKN015
  FM201700 29010G18KT P6SM VCSH OVC020
  FM202000 27011KT P6SM -SHSN BKN025
  FM202300 26006KT P6SM BKN040
  FM211400 25011G19KT P6SM -SHSN BKN025


KSAN 201445Z 2015/2118 VRB03KT P6SM FEW015 BKN250
  FM202000 26008KT P6SM SCT200
  FM210100 VRB05KT P6SM FEW015 SCT200
  FM211000 VRB03KT P6SM BKN015
  FM211500 VRB04KT P6SM SCT015 SCT250


KSEA 201601Z 2016/2118 VRB03KT 4SM BR SCT001
  TEMPO 2016/2018 1/2SM FG VV001
  FM201800 VRB05KT P6SM BKN200
  FM210600 10006KT P6SM SCT120 OVC200
  FM211100 12006KT P6SM BKN080 OVC120
  FM211700 14008KT P6SM -RA BKN060 OVC100


KSFO 201507Z 2015/2118 16004KT 3SM FU HZ FEW005 SCT200
  FM201700 09005KT 4SM FU HZ FEW006 SCT200
  FM202200 18008KT 4SM FU HZ FEW008 SCT200
  FM210400 12008KT 6SM FU HZ BKN050 OVC200
  FM210900 12010KT P6SM BKN030 OVC050
  PROB30 2109/2112 P6SM -RA
  FM211200 13010KT P6SM SHRA BKN030 OVC050
  TEMPO 2112/2116 P6SM -RA
  FM211600 14015KT 4SM -RA BR BKN030 OVC050


KSLC 201455Z 2015/2118 15005KT P6SM SKC
  FM201900 33006KT P6SM SKC
  FM210300 15005KT P6SM FEW200


KSTL 201457Z 2015/2118 32010KT P6SM OVC019
  FM201600 32008KT P6SM OVC022
  FM201800 32008KT P6SM BKN035
  FM202000 30006KT P6SM SCT250


KTPA 201518Z 2015/2118 24005KT P6SM FEW007 BKN030
  FM201600 33008KT P6SM SCT030 BKN050
  FM210000 36005KT P6SM FEW050 FEW250